createdAt,value
2022-09-25T00:00:55.012Z,19.70
2022-09-25T00:03:24.936Z,17.87
2022-09-25T00:05:52.128Z,18.77
2022-09-25T00:08:19.997Z,16.90
2022-09-25T00:10:50.063Z,18.57
2022-09-25T00:13:18.929Z,18.13
2022-09-25T00:15:50.503Z,17.67
2022-09-25T00:18:37.897Z,17.70
2022-09-25T00:21:05.601Z,16.57
2022-09-25T00:23:33.705Z,17.17
2022-09-25T00:26:05.962Z,15.90
2022-09-25T00:28:32.752Z,16.67
2022-09-25T00:30:59.889Z,16.97
2022-09-25T00:33:28.609Z,16.00
2022-09-25T00:35:55.441Z,15.37
2022-09-25T00:38:22.078Z,16.63
2022-09-25T00:40:48.827Z,15.77
2022-09-25T00:43:33.115Z,15.10
2022-09-25T00:46:01.922Z,16.37
2022-09-25T00:48:30.741Z,15.53
2022-09-25T00:50:59.137Z,15.20
2022-09-25T00:53:32.679Z,15.70
2022-09-25T00:56:01.415Z,13.90
2022-09-25T00:58:31.951Z,15.17
2022-09-25T01:00:59.549Z,15.30
2022-09-25T01:03:27.420Z,14.90
2022-09-25T01:05:55.467Z,15.90
2022-09-25T01:08:26.283Z,15.27
2022-09-25T01:10:53.135Z,15.73
2022-09-25T01:13:20.313Z,16.70
2022-09-25T01:16:08.178Z,16.27
2022-09-25T01:18:53.153Z,15.87
2022-09-25T01:21:44.108Z,16.03
2022-09-25T01:24:48.304Z,14.50
2022-09-25T01:27:14.974Z,15.40
2022-09-25T01:29:47.306Z,15.27
2022-09-25T01:32:33.461Z,15.50
2022-09-25T01:35:06.706Z,15.87
2022-09-25T01:37:38.921Z,14.73
2022-09-25T01:40:22.831Z,15.80
2022-09-25T01:43:01.827Z,16.30
2022-09-25T01:46:01.360Z,16.27
2022-09-25T01:48:31.679Z,14.93
2022-09-25T01:51:02.879Z,14.37
2022-09-25T01:53:39.227Z,13.93
2022-09-25T01:56:23.181Z,14.70
2022-09-25T01:58:58.574Z,16.87
2022-09-25T02:01:32.514Z,15.17
2022-09-25T02:04:08.162Z,15.57
2022-09-25T02:06:38.351Z,13.93
2022-09-25T02:09:11.179Z,18.00
2022-09-25T02:11:43.527Z,12.93
2022-09-25T02:14:28.000Z,13.77
2022-09-25T02:16:57.878Z,14.47
2022-09-25T02:19:44.145Z,15.20
2022-09-25T02:22:15.510Z,14.70
2022-09-25T02:25:02.525Z,15.57
2022-09-25T02:27:29.388Z,15.20
2022-09-25T02:29:58.283Z,15.40
2022-09-25T02:32:34.056Z,17.97
2022-09-25T02:35:01.145Z,17.80
2022-09-25T02:37:28.414Z,16.53
2022-09-25T02:39:58.050Z,19.97
2022-09-25T02:42:43.115Z,17.30
2022-09-25T02:45:17.800Z,18.83
2022-09-25T02:47:51.790Z,19.90
2022-09-25T02:51:02.854Z,20.03
2022-09-25T02:53:32.553Z,17.43
2022-09-25T02:56:24.911Z,18.00
2022-09-25T02:58:56.183Z,19.10
2022-09-25T03:01:26.154Z,17.77
2022-09-25T03:03:57.425Z,17.23
2022-09-25T03:06:25.283Z,16.73
2022-09-25T03:08:56.693Z,20.93
2022-09-25T03:11:26.813Z,19.93
2022-09-25T03:14:01.683Z,19.23
2022-09-25T03:16:39.184Z,18.30
2022-09-25T03:19:06.179Z,18.87
2022-09-25T03:21:33.084Z,18.33
2022-09-25T03:24:00.422Z,18.70
2022-09-25T03:26:27.839Z,20.00
2022-09-25T03:28:54.763Z,18.13
2022-09-25T03:31:21.694Z,17.27
2022-09-25T03:33:48.817Z,19.10
2022-09-25T03:36:21.130Z,19.00
2022-09-25T03:38:50.519Z,18.67
2022-09-25T03:41:21.185Z,18.77
2022-09-25T03:43:51.492Z,17.23
2022-09-25T03:46:21.123Z,16.90
2022-09-25T03:48:48.305Z,17.83
2022-09-25T03:51:15.508Z,16.03
2022-09-25T03:53:42.272Z,16.73
2022-09-25T03:56:13.135Z,16.57
2022-09-25T03:58:40.499Z,16.73
2022-09-25T04:01:07.399Z,17.70
2022-09-25T04:03:34.663Z,17.30
2022-09-25T04:06:06.121Z,17.90
2022-09-25T04:08:34.366Z,17.67
2022-09-25T04:11:02.828Z,19.50
2022-09-25T04:13:36.286Z,16.60
2022-09-25T04:16:05.571Z,19.97
2022-09-25T04:18:32.750Z,18.57
2022-09-25T04:21:06.647Z,19.27
2022-09-25T04:23:33.518Z,18.17
2022-09-25T04:26:00.429Z,18.13
2022-09-25T04:28:27.494Z,18.03
2022-09-25T04:30:54.263Z,17.70
2022-09-25T04:33:39.583Z,18.20
2022-09-25T04:36:06.671Z,16.73
2022-09-25T04:38:33.437Z,17.40
2022-09-25T04:41:01.543Z,18.80
2022-09-25T04:43:32.458Z,19.20
2022-09-25T04:46:08.230Z,19.33
2022-09-25T04:48:35.698Z,17.43
2022-09-25T04:51:03.293Z,18.23
2022-09-25T04:53:31.741Z,17.13
2022-09-25T04:56:12.291Z,15.43
2022-09-25T04:58:45.058Z,15.40
2022-09-25T05:01:11.814Z,14.13
2022-09-25T05:03:38.543Z,13.33
2022-09-25T05:06:05.438Z,13.83
2022-09-25T05:08:32.132Z,14.57
2022-09-25T05:10:59.005Z,15.60
2022-09-25T05:13:26.071Z,16.80
2022-09-25T05:15:55.035Z,15.40
2022-09-25T05:18:24.081Z,14.20
2022-09-25T05:20:53.306Z,15.80
2022-09-25T05:23:20.869Z,14.60
2022-09-25T05:25:55.243Z,14.27
2022-09-25T05:28:23.511Z,14.20
2022-09-25T05:30:50.982Z,14.10
2022-09-25T05:33:18.919Z,13.57
2022-09-25T05:35:45.939Z,13.07
2022-09-25T05:38:12.642Z,12.93
2022-09-25T05:40:39.537Z,11.70
2022-09-25T05:43:07.162Z,12.60
2022-09-25T05:45:34.928Z,13.47
2022-09-25T05:48:06.666Z,12.60
2022-09-25T05:50:33.885Z,11.60
2022-09-25T05:53:02.647Z,10.93
2022-09-25T05:55:30.430Z,10.97
2022-09-25T05:58:04.520Z,11.37
2022-09-25T06:00:33.713Z,10.03
2022-09-25T06:03:01.606Z,9.97
2022-09-25T06:05:28.829Z,10.00
2022-09-25T06:07:56.050Z,11.77
2022-09-25T06:10:25.177Z,10.70
2022-09-25T06:12:54.430Z,9.67
2022-09-25T06:15:21.535Z,9.97
2022-09-25T06:17:48.222Z,10.70
2022-09-25T06:20:16.293Z,11.20
2022-09-25T06:22:44.397Z,10.90
2022-09-25T06:25:11.150Z,11.47
2022-09-25T06:27:37.851Z,10.97
2022-09-25T06:30:05.049Z,10.10
2022-09-25T06:32:31.683Z,10.57
2022-09-25T06:34:58.360Z,10.53
2022-09-25T06:37:25.016Z,11.20
2022-09-25T06:39:51.739Z,12.13
2022-09-25T06:42:18.390Z,11.00
2022-09-25T06:44:45.074Z,9.90
2022-09-25T06:47:18.661Z,9.63
2022-09-25T06:49:46.438Z,9.93
2022-09-25T06:52:13.478Z,9.93
2022-09-25T06:54:44.025Z,10.13
2022-09-25T06:57:12.727Z,9.83
2022-09-25T06:59:40.177Z,10.43
2022-09-25T07:02:27.461Z,10.80
2022-09-25T07:04:54.177Z,9.73
2022-09-25T07:07:21.133Z,10.07
2022-09-25T07:09:48.560Z,10.67
2022-09-25T07:12:21.826Z,9.70
2022-09-25T07:14:48.514Z,10.80
2022-09-25T07:17:15.224Z,11.10
2022-09-25T07:19:41.885Z,10.60
2022-09-25T07:22:08.534Z,10.67
2022-09-25T07:24:35.201Z,10.43
2022-09-25T07:27:01.849Z,11.27
2022-09-25T07:29:28.490Z,9.60
2022-09-25T07:31:55.158Z,9.97
2022-09-25T07:34:22.004Z,11.93
2022-09-25T07:36:48.709Z,10.63
2022-09-25T07:39:18.541Z,10.50
2022-09-25T07:41:46.173Z,11.50
2022-09-25T07:44:30.290Z,10.10
2022-09-25T07:47:02.546Z,10.83
2022-09-25T07:49:32.723Z,10.90
2022-09-25T07:51:59.704Z,11.80
2022-09-25T07:54:26.400Z,12.80
2022-09-25T07:56:53.138Z,12.13
2022-09-25T07:59:19.912Z,12.10
2022-09-25T08:01:52.724Z,11.60
2022-09-25T08:04:20.638Z,12.97
2022-09-25T08:06:47.289Z,12.87
2022-09-25T08:09:14.035Z,12.80
2022-09-25T08:11:41.085Z,12.00
2022-09-25T08:14:07.839Z,12.07
2022-09-25T08:16:34.612Z,11.77
2022-09-25T08:19:01.456Z,13.33
2022-09-25T08:21:28.265Z,13.77
2022-09-25T08:23:56.505Z,12.70
2022-09-25T08:26:23.720Z,13.20
2022-09-25T08:28:50.912Z,14.43
2022-09-25T08:31:18.233Z,14.10
2022-09-25T08:33:49.598Z,14.10
2022-09-25T08:36:17.719Z,13.77
2022-09-25T08:38:45.343Z,13.23
2022-09-25T08:41:19.253Z,13.80
2022-09-25T08:43:55.304Z,11.80
2022-09-25T08:47:19.874Z,14.17
2022-09-25T08:50:01.589Z,14.10
2022-09-25T08:52:29.004Z,11.87
2022-09-25T08:54:55.720Z,13.47
2022-09-25T08:57:40.393Z,13.07
2022-09-25T09:00:19.352Z,14.20
2022-09-25T09:02:53.104Z,12.60
2022-09-25T09:05:26.557Z,12.50
2022-09-25T09:08:25.258Z,12.73
2022-09-25T09:10:58.967Z,15.60
2022-09-25T09:13:49.588Z,14.77
2022-09-25T09:16:22.760Z,12.67
2022-09-25T09:18:49.916Z,12.70
2022-09-25T09:21:28.703Z,11.63
2022-09-25T09:24:12.954Z,12.73
2022-09-25T09:26:57.776Z,13.13
2022-09-25T09:29:33.388Z,11.60
2022-09-25T09:32:25.994Z,10.70
2022-09-25T09:35:08.171Z,11.57
2022-09-25T09:37:52.499Z,13.53
2022-09-25T09:40:19.397Z,11.90
2022-09-25T09:43:04.255Z,11.60
2022-09-25T09:45:44.634Z,11.83
2022-09-25T09:48:39.213Z,10.60
2022-09-25T09:51:30.780Z,10.50
2022-09-25T09:54:12.745Z,11.63
2022-09-25T09:56:42.856Z,9.53
2022-09-25T09:59:20.760Z,7.80
2022-09-25T10:01:59.376Z,8.80
2022-09-25T10:04:33.670Z,8.17
2022-09-25T10:07:14.124Z,9.50
2022-09-25T10:09:40.809Z,8.30
2022-09-25T10:12:35.066Z,8.67
2022-09-25T10:15:15.187Z,9.33
2022-09-25T10:17:43.101Z,8.40
2022-09-25T10:20:22.116Z,9.93
2022-09-25T10:22:53.273Z,9.40
2022-09-25T10:25:37.254Z,9.50
2022-09-25T10:28:34.231Z,9.27
2022-09-25T10:31:02.586Z,8.63
2022-09-25T10:33:32.811Z,10.03
2022-09-25T10:35:59.998Z,13.30
2022-09-25T10:38:53.510Z,13.30
2022-09-25T10:41:25.923Z,11.00
2022-09-25T10:43:54.936Z,10.50
2022-09-25T10:46:51.609Z,10.90
2022-09-25T10:49:36.966Z,11.30
2022-09-25T10:52:10.418Z,12.03
2022-09-25T10:54:43.558Z,13.27
2022-09-25T10:57:35.262Z,11.73
2022-09-25T11:00:07.361Z,11.93
2022-09-25T11:02:38.029Z,13.97
2022-09-25T11:05:07.440Z,13.00
2022-09-25T11:07:34.904Z,15.30
2022-09-25T11:10:01.935Z,14.70
2022-09-25T11:12:32.491Z,14.47
2022-09-25T11:15:02.505Z,15.77
2022-09-25T11:17:41.959Z,14.90
2022-09-25T11:20:29.277Z,15.80
2022-09-25T11:23:05.544Z,16.03
2022-09-25T11:26:00.075Z,15.47
2022-09-25T11:28:42.111Z,17.30
2022-09-25T11:31:26.659Z,18.33
2022-09-25T11:34:17.238Z,15.90
2022-09-25T11:36:49.394Z,16.43
2022-09-25T11:40:13.777Z,15.87
2022-09-25T11:42:51.929Z,16.10
2022-09-25T11:45:36.444Z,15.40
2022-09-25T11:48:14.063Z,16.93
2022-09-25T11:51:22.581Z,16.13
2022-09-25T11:54:31.998Z,16.83
2022-09-25T11:57:22.906Z,17.07
2022-09-25T12:00:08.287Z,15.70
2022-09-25T12:02:49.424Z,16.07
2022-09-25T12:05:28.355Z,18.63
2022-09-25T12:08:06.964Z,18.50
2022-09-25T12:10:36.447Z,19.10
2022-09-25T12:13:44.675Z,16.73
2022-09-25T12:16:23.265Z,15.23
2022-09-25T12:19:00.621Z,16.03
2022-09-25T12:21:34.117Z,18.37
2022-09-25T12:24:09.134Z,19.50
2022-09-25T12:27:01.787Z,18.40
2022-09-25T12:29:57.983Z,18.20
2022-09-25T12:33:02.341Z,18.77
2022-09-25T12:35:50.809Z,14.50
2022-09-25T12:38:41.304Z,14.07
2022-09-25T12:41:30.377Z,16.10
2022-09-25T12:44:37.576Z,14.63
2022-09-25T12:47:09.147Z,18.70
2022-09-25T12:49:42.591Z,16.00
2022-09-25T12:52:37.998Z,15.70
2022-09-25T12:55:24.326Z,11.80
2022-09-25T12:58:10.410Z,10.93
2022-09-25T13:00:41.484Z,12.23
2022-09-25T13:03:13.716Z,12.27
2022-09-25T13:05:45.507Z,10.97
2022-09-25T13:08:30.398Z,11.43
2022-09-25T13:11:02.319Z,12.13
2022-09-25T13:13:32.565Z,10.10
2022-09-25T13:16:01.594Z,10.63
2022-09-25T13:18:30.713Z,9.73
2022-09-25T13:21:23.449Z,8.90
2022-09-25T13:23:53.039Z,10.23
2022-09-25T13:26:26.847Z,9.10
2022-09-25T13:28:59.213Z,10.00
2022-09-25T13:31:34.484Z,10.20
2022-09-25T13:34:01.209Z,10.30
2022-09-25T13:36:44.265Z,9.60
2022-09-25T13:39:44.832Z,8.50
2022-09-25T13:42:22.409Z,8.53
2022-09-25T13:44:56.234Z,8.70
2022-09-25T13:47:27.098Z,10.10
2022-09-25T13:50:04.639Z,10.13
2022-09-25T13:52:40.580Z,10.50
2022-09-25T13:55:21.333Z,11.20
2022-09-25T13:58:00.882Z,10.23
2022-09-25T14:00:33.752Z,10.60
2022-09-25T14:03:03.442Z,9.70
2022-09-25T14:05:37.086Z,9.40
2022-09-25T14:08:14.089Z,10.70
2022-09-25T14:10:51.235Z,9.87
2022-09-25T14:13:23.745Z,8.63
2022-09-25T14:15:51.855Z,8.97
2022-09-25T14:18:26.261Z,8.43
2022-09-25T14:20:59.709Z,8.53
2022-09-25T14:23:30.309Z,9.07
2022-09-25T14:26:02.436Z,8.23
2022-09-25T14:28:31.434Z,7.13
2022-09-25T14:31:09.503Z,7.00
2022-09-25T14:34:02.127Z,7.80
2022-09-25T14:36:36.781Z,5.37
2022-09-25T14:39:29.433Z,5.90
2022-09-25T14:42:27.350Z,7.30
2022-09-25T14:45:09.160Z,6.90
2022-09-25T14:47:45.178Z,7.70
2022-09-25T14:50:49.101Z,8.37
2022-09-25T14:53:46.106Z,6.53
2022-09-25T14:56:14.734Z,6.30
2022-09-25T14:58:49.548Z,5.53
2022-09-25T15:01:31.135Z,6.07
2022-09-25T15:04:03.990Z,6.27
2022-09-25T15:06:36.158Z,6.20
2022-09-25T15:09:29.619Z,5.93
2022-09-25T15:11:56.437Z,5.30
2022-09-25T15:14:23.216Z,5.23
2022-09-25T15:17:08.489Z,17.70
2022-09-25T15:19:39.685Z,7.83
2022-09-25T15:22:12.070Z,7.90
2022-09-25T15:24:46.736Z,8.03
2022-09-25T15:27:16.245Z,6.90
2022-09-25T15:29:45.605Z,4.80
2022-09-25T15:32:38.004Z,5.87
2022-09-25T15:35:07.639Z,6.00
2022-09-25T15:37:34.405Z,5.53
2022-09-25T15:40:27.880Z,5.60
2022-09-25T15:42:55.605Z,5.00
2022-09-25T15:45:39.763Z,4.83
2022-09-25T15:48:15.929Z,5.00
2022-09-25T15:50:44.667Z,4.53
2022-09-25T15:53:27.694Z,5.50
2022-09-25T15:56:06.409Z,4.87
2022-09-25T15:58:41.597Z,3.60
2022-09-25T16:01:31.275Z,3.30
2022-09-25T16:04:17.095Z,3.20
2022-09-25T16:06:45.077Z,8.53
2022-09-25T16:09:22.876Z,4.03
2022-09-25T16:11:49.969Z,2.40
2022-09-25T16:14:31.001Z,2.40
2022-09-25T16:16:59.958Z,2.10
2022-09-25T16:19:26.682Z,2.27
2022-09-25T16:21:54.547Z,2.17
2022-09-25T16:24:29.662Z,2.30
2022-09-25T16:27:01.384Z,2.17
2022-09-25T16:29:39.212Z,2.67
2022-09-25T16:32:11.019Z,2.10
2022-09-25T16:34:40.587Z,2.20
2022-09-25T16:37:23.800Z,2.30
2022-09-25T16:40:12.356Z,2.30
2022-09-25T16:42:40.182Z,2.33
2022-09-25T16:45:33.226Z,5.40
2022-09-25T16:48:22.146Z,3.80
2022-09-25T16:50:49.030Z,3.50
2022-09-25T16:53:15.697Z,5.53
2022-09-25T16:55:48.171Z,4.00
2022-09-25T16:58:15.082Z,3.90
2022-09-25T17:00:41.813Z,3.70
2022-09-25T17:03:12.135Z,3.60
2022-09-25T17:05:39.517Z,4.53
2022-09-25T17:08:18.872Z,4.20
2022-09-25T17:10:49.824Z,4.37
2022-09-25T17:13:19.296Z,5.10
2022-09-25T17:15:47.642Z,4.57
2022-09-25T17:18:18.844Z,4.63
2022-09-25T17:20:46.129Z,4.37
2022-09-25T17:23:14.802Z,3.83
2022-09-25T17:25:48.151Z,4.27
2022-09-25T17:28:15.506Z,3.70
2022-09-25T17:30:43.344Z,4.47
2022-09-25T17:33:17.253Z,4.00
2022-09-25T17:35:52.543Z,4.27
2022-09-25T17:38:20.013Z,4.63
2022-09-25T17:40:49.495Z,4.50
2022-09-25T17:43:16.512Z,4.40
2022-09-25T17:45:43.744Z,4.50
2022-09-25T17:48:11.940Z,17.20
2022-09-25T17:50:39.614Z,8.97
2022-09-25T17:53:17.471Z,5.90
2022-09-25T17:55:44.589Z,5.60
2022-09-25T17:58:11.685Z,5.77
2022-09-25T18:00:38.475Z,8.70
2022-09-25T18:03:05.775Z,9.13
2022-09-25T18:05:32.646Z,9.33
2022-09-25T18:07:59.577Z,10.73
2022-09-25T18:10:29.287Z,8.93
2022-09-25T18:12:57.169Z,9.13
2022-09-25T18:15:24.144Z,9.30
2022-09-25T18:17:51.042Z,9.17
2022-09-25T18:20:36.862Z,9.63
2022-09-25T18:23:04.020Z,11.73
2022-09-25T18:25:40.205Z,10.57
2022-09-25T18:28:08.551Z,11.80
2022-09-25T18:30:37.158Z,10.47
2022-09-25T18:33:04.267Z,13.30
2022-09-25T18:35:31.247Z,12.37
2022-09-25T18:37:59.435Z,13.73
2022-09-25T18:40:27.015Z,11.67
2022-09-25T18:42:53.994Z,11.50
2022-09-25T18:45:22.107Z,13.63
2022-09-25T18:47:49.211Z,13.60
2022-09-25T18:50:20.768Z,14.10
2022-09-25T18:52:48.111Z,13.90
2022-09-25T18:55:15.711Z,14.47
2022-09-25T18:57:43.280Z,13.70
2022-09-25T19:00:11.521Z,13.83
2022-09-25T19:02:42.690Z,13.93
2022-09-25T19:05:17.825Z,13.40
2022-09-25T19:07:45.251Z,13.97
2022-09-25T19:10:13.049Z,12.90
2022-09-25T19:12:40.097Z,14.50
2022-09-25T19:15:07.582Z,10.17
2022-09-25T19:17:36.031Z,12.90
2022-09-25T19:20:02.936Z,12.30
2022-09-25T19:22:29.732Z,13.77
2022-09-25T19:24:56.902Z,12.67
2022-09-25T19:27:25.494Z,11.87
2022-09-25T19:29:52.379Z,13.00
2022-09-25T19:32:19.241Z,10.87
2022-09-25T19:34:46.787Z,12.90
2022-09-25T19:37:15.315Z,12.07
2022-09-25T19:40:01.037Z,12.40
2022-09-25T19:42:28.603Z,12.20
2022-09-25T19:44:56.554Z,12.47
2022-09-25T19:47:23.630Z,11.87
2022-09-25T19:49:50.598Z,12.93
2022-09-25T19:52:20.501Z,12.70
2022-09-25T19:54:47.342Z,12.10
2022-09-25T19:57:14.459Z,11.70
2022-09-25T19:59:41.185Z,12.90
2022-09-25T20:02:09.642Z,11.33
2022-09-25T20:04:36.678Z,10.67
2022-09-25T20:07:03.507Z,11.77
2022-09-25T20:09:30.200Z,9.97
2022-09-25T20:11:56.994Z,10.17
2022-09-25T20:14:26.768Z,9.90
2022-09-25T20:16:54.559Z,10.23
2022-09-25T20:19:21.755Z,10.87
2022-09-25T20:21:49.710Z,10.73
2022-09-25T20:24:18.033Z,10.60
2022-09-25T20:26:44.751Z,11.20
2022-09-25T20:29:13.911Z,11.73
2022-09-25T20:31:43.239Z,11.73
2022-09-25T20:34:18.286Z,12.00
2022-09-25T20:36:46.602Z,11.70
2022-09-25T20:39:19.743Z,10.80
2022-09-25T20:41:48.137Z,11.73
2022-09-25T20:44:15.046Z,11.87
2022-09-25T20:46:42.164Z,11.43
2022-09-25T20:49:10.862Z,10.30
2022-09-25T20:51:38.087Z,11.30
2022-09-25T20:54:07.583Z,9.80
2022-09-25T20:56:35.674Z,9.90
2022-09-25T20:59:03.611Z,11.80
2022-09-25T21:01:36.486Z,9.47
2022-09-25T21:04:05.963Z,9.83
2022-09-25T21:06:34.488Z,9.50
2022-09-25T21:09:04.568Z,8.17
2022-09-25T21:11:32.411Z,10.03
2022-09-25T21:14:02.347Z,9.03
2022-09-25T21:16:30.958Z,8.87
2022-09-25T21:19:00.570Z,8.47
2022-09-25T21:21:28.846Z,9.57
2022-09-25T21:23:57.127Z,10.07
2022-09-25T21:26:27.677Z,8.80
2022-09-25T21:28:56.716Z,8.77
2022-09-25T21:31:26.086Z,9.17
2022-09-25T21:33:54.584Z,9.47
2022-09-25T21:36:22.661Z,7.30
2022-09-25T21:38:49.911Z,8.27
2022-09-25T21:41:22.228Z,9.00
2022-09-25T21:43:53.953Z,7.77
2022-09-25T21:46:21.030Z,7.10
2022-09-25T21:48:54.098Z,7.30
2022-09-25T21:51:22.866Z,7.93
2022-09-25T21:53:50.121Z,7.30
2022-09-25T21:56:21.521Z,7.57
2022-09-25T21:58:48.669Z,7.93
2022-09-25T22:01:21.130Z,8.20
2022-09-25T22:03:49.747Z,8.30
2022-09-25T22:06:22.402Z,7.20
2022-09-25T22:08:51.869Z,7.70
2022-09-25T22:11:19.312Z,7.97
2022-09-25T22:13:47.486Z,8.30
2022-09-25T22:16:18.929Z,7.67
2022-09-25T22:18:47.090Z,7.60
2022-09-25T22:21:17.638Z,7.60
2022-09-25T22:23:44.603Z,7.50
2022-09-25T22:26:12.987Z,8.10
2022-09-25T22:28:39.787Z,8.07
2022-09-25T22:31:12.380Z,9.07
2022-09-25T22:33:40.164Z,8.77
2022-09-25T22:36:08.768Z,8.30
2022-09-25T22:38:36.536Z,7.83
2022-09-25T22:41:08.845Z,7.73
2022-09-25T22:43:36.338Z,8.03
2022-09-25T22:46:03.541Z,7.40
2022-09-25T22:48:30.957Z,6.70
2022-09-25T22:51:01.599Z,7.17
2022-09-25T22:53:30.469Z,6.70
2022-09-25T22:56:10.153Z,8.50
2022-09-25T22:58:36.988Z,8.13
2022-09-25T23:01:06.517Z,8.50
2022-09-25T23:03:33.428Z,7.63
2022-09-25T23:06:01.425Z,8.63
2022-09-25T23:08:28.330Z,7.67
2022-09-25T23:11:07.201Z,8.00
2022-09-25T23:13:35.519Z,8.20
2022-09-25T23:16:08.452Z,8.80
2022-09-25T23:18:36.672Z,8.10
2022-09-25T23:21:04.589Z,7.50
2022-09-25T23:23:31.420Z,8.80
2022-09-25T23:26:03.517Z,8.37
2022-09-25T23:28:33.480Z,7.10
2022-09-25T23:31:10.630Z,7.10
2022-09-25T23:33:37.978Z,8.03
2022-09-25T23:36:07.257Z,7.80
2022-09-25T23:38:34.635Z,6.53
2022-09-25T23:41:02.163Z,6.80
2022-09-25T23:43:28.918Z,6.87
2022-09-25T23:45:55.819Z,7.13
2022-09-25T23:48:22.822Z,7.80
2022-09-25T23:50:51.265Z,7.17
2022-09-25T23:53:18.094Z,7.23
2022-09-25T23:55:44.958Z,7.27
2022-09-25T23:58:12.271Z,6.97
